sensor_id;sensor_type;location;lat;lon;timestamp;P1;durP1;ratioP1;P2;durP2;ratioP2
46042;SDS011;32533;-33.854;18.542;2022-10-26T00:01:09;13.25;;;2.25;;
46042;SDS011;32533;-33.854;18.542;2022-10-26T00:03:40;9.80;;;2.42;;
46042;SDS011;32533;-33.854;18.542;2022-10-26T00:06:12;8.55;;;2.20;;
46042;SDS011;32533;-33.854;18.542;2022-10-26T00:08:44;5.80;;;2.17;;
46042;SDS011;32533;-33.854;18.542;2022-10-26T00:11:11;5.53;;;2.20;;
46042;SDS011;32533;-33.854;18.542;2022-10-26T00:13:38;11.60;;;2.85;;
46042;SDS011;32533;-33.854;18.542;2022-10-26T00:16:09;6.70;;;2.70;;
46042;SDS011;32533;-33.854;18.542;2022-10-26T00:18:37;9.05;;;2.60;;
46042;SDS011;32533;-33.854;18.542;2022-10-26T00:21:04;7.72;;;2.08;;
46042;SDS011;32533;-33.854;18.542;2022-10-26T00:23:36;11.35;;;2.50;;
46042;SDS011;32533;-33.854;18.542;2022-10-26T00:26:12;6.25;;;2.38;;
46042;SDS011;32533;-33.854;18.542;2022-10-26T00:31:10;11.10;;;2.63;;
46042;SDS011;32533;-33.854;18.542;2022-10-26T00:33:41;5.35;;;3.25;;
46042;SDS011;32533;-33.854;18.542;2022-10-26T00:36:08;4.68;;;2.47;;
46042;SDS011;32533;-33.854;18.542;2022-10-26T00:38:40;9.95;;;2.92;;
46042;SDS011;32533;-33.854;18.542;2022-10-26T00:41:16;8.45;;;3.17;;
46042;SDS011;32533;-33.854;18.542;2022-10-26T00:43:46;10.48;;;2.25;;
46042;SDS011;32533;-33.854;18.542;2022-10-26T00:46:38;10.25;;;3.25;;
46042;SDS011;32533;-33.854;18.542;2022-10-26T00:49:04;9.90;;;2.88;;
46042;SDS011;32533;-33.854;18.542;2022-10-26T00:51:43;10.10;;;3.33;;
46042;SDS011;32533;-33.854;18.542;2022-10-26T00:54:18;11.93;;;3.33;;
46042;SDS011;32533;-33.854;18.542;2022-10-26T00:56:48;9.73;;;3.03;;
46042;SDS011;32533;-33.854;18.542;2022-10-26T00:59:18;9.43;;;3.33;;
46042;SDS011;32533;-33.854;18.542;2022-10-26T01:01:47;8.27;;;2.17;;
46042;SDS011;32533;-33.854;18.542;2022-10-26T01:04:18;6.90;;;2.22;;
46042;SDS011;32533;-33.854;18.542;2022-10-26T01:06:47;16.90;;;4.72;;
46042;SDS011;32533;-33.854;18.542;2022-10-26T01:09:16;15.32;;;4.43;;
46042;SDS011;32533;-33.854;18.542;2022-10-26T01:11:43;8.98;;;2.15;;
46042;SDS011;32533;-33.854;18.542;2022-10-26T01:14:10;7.55;;;2.63;;
46042;SDS011;32533;-33.854;18.542;2022-10-26T01:21:50;10.27;;;2.70;;
46042;SDS011;32533;-33.854;18.542;2022-10-26T01:27:28;5.97;;;2.72;;
46042;SDS011;32533;-33.854;18.542;2022-10-26T01:30:10;10.23;;;3.30;;
46042;SDS011;32533;-33.854;18.542;2022-10-26T01:32:54;9.50;;;2.83;;
46042;SDS011;32533;-33.854;18.542;2022-10-26T01:38:21;10.50;;;2.60;;
46042;SDS011;32533;-33.854;18.542;2022-10-26T01:43:24;7.53;;;2.95;;
46042;SDS011;32533;-33.854;18.542;2022-10-26T01:45:55;9.88;;;2.85;;
46042;SDS011;32533;-33.854;18.542;2022-10-26T01:48:23;20.63;;;4.18;;
46042;SDS011;32533;-33.854;18.542;2022-10-26T01:50:52;12.23;;;2.53;;
46042;SDS011;32533;-33.854;18.542;2022-10-26T01:53:20;11.60;;;3.47;;
46042;SDS011;32533;-33.854;18.542;2022-10-26T01:55:50;10.15;;;2.40;;
46042;SDS011;32533;-33.854;18.542;2022-10-26T02:03:49;6.88;;;2.58;;
46042;SDS011;32533;-33.854;18.542;2022-10-26T02:06:55;14.43;;;4.53;;
46042;SDS011;32533;-33.854;18.542;2022-10-26T02:09:33;7.18;;;3.22;;
46042;SDS011;32533;-33.854;18.542;2022-10-26T02:12:13;8.60;;;2.63;;
46042;SDS011;32533;-33.854;18.542;2022-10-26T02:15:15;13.05;;;3.30;;
46042;SDS011;32533;-33.854;18.542;2022-10-26T02:20:48;9.30;;;3.47;;
46042;SDS011;32533;-33.854;18.542;2022-10-26T02:23:19;12.80;;;3.40;;
46042;SDS011;32533;-33.854;18.542;2022-10-26T02:25:50;11.05;;;3.05;;
46042;SDS011;32533;-33.854;18.542;2022-10-26T02:28:26;6.97;;;2.78;;
46042;SDS011;32533;-33.854;18.542;2022-10-26T02:30:58;13.77;;;4.43;;
46042;SDS011;32533;-33.854;18.542;2022-10-26T02:33:28;11.52;;;4.10;;
46042;SDS011;32533;-33.854;18.542;2022-10-26T02:35:58;8.75;;;3.53;;
46042;SDS011;32533;-33.854;18.542;2022-10-26T02:38:27;14.13;;;4.60;;
46042;SDS011;32533;-33.854;18.542;2022-10-26T02:40:57;8.30;;;3.97;;
46042;SDS011;32533;-33.854;18.542;2022-10-26T02:43:25;7.30;;;3.08;;
46042;SDS011;32533;-33.854;18.542;2022-10-26T02:46:10;13.23;;;3.75;;
46042;SDS011;32533;-33.854;18.542;2022-10-26T02:48:41;10.63;;;3.35;;
46042;SDS011;32533;-33.854;18.542;2022-10-26T02:51:11;8.23;;;2.85;;
46042;SDS011;32533;-33.854;18.542;2022-10-26T02:56:31;11.57;;;3.72;;
46042;SDS011;32533;-33.854;18.542;2022-10-26T02:59:04;54.40;;;10.63;;
46042;SDS011;32533;-33.854;18.542;2022-10-26T03:01:34;12.00;;;3.28;;
46042;SDS011;32533;-33.854;18.542;2022-10-26T03:04:01;11.30;;;3.92;;
46042;SDS011;32533;-33.854;18.542;2022-10-26T03:06:27;15.88;;;3.95;;
46042;SDS011;32533;-33.854;18.542;2022-10-26T03:08:54;22.17;;;5.88;;
46042;SDS011;32533;-33.854;18.542;2022-10-26T03:11:20;20.48;;;4.90;;
46042;SDS011;32533;-33.854;18.542;2022-10-26T03:13:47;25.10;;;4.10;;
46042;SDS011;32533;-33.854;18.542;2022-10-26T03:16:13;12.45;;;2.88;;
46042;SDS011;32533;-33.854;18.542;2022-10-26T03:18:40;15.27;;;5.38;;
46042;SDS011;32533;-33.854;18.542;2022-10-26T03:21:06;11.80;;;3.60;;
46042;SDS011;32533;-33.854;18.542;2022-10-26T03:23:53;10.23;;;3.10;;
46042;SDS011;32533;-33.854;18.542;2022-10-26T03:26:19;13.43;;;3.30;;
46042;SDS011;32533;-33.854;18.542;2022-10-26T03:28:46;11.05;;;3.53;;
46042;SDS011;32533;-33.854;18.542;2022-10-26T03:31:12;11.05;;;2.85;;
46042;SDS011;32533;-33.854;18.542;2022-10-26T03:33:39;9.57;;;2.60;;
46042;SDS011;32533;-33.854;18.542;2022-10-26T03:36:05;13.98;;;3.38;;
46042;SDS011;32533;-33.854;18.542;2022-10-26T03:38:32;12.65;;;3.28;;
46042;SDS011;32533;-33.854;18.542;2022-10-26T03:40:59;9.02;;;3.22;;
46042;SDS011;32533;-33.854;18.542;2022-10-26T03:43:28;12.02;;;3.85;;
46042;SDS011;32533;-33.854;18.542;2022-10-26T03:45:55;12.95;;;4.63;;
46042;SDS011;32533;-33.854;18.542;2022-10-26T03:48:21;15.43;;;3.97;;
46042;SDS011;32533;-33.854;18.542;2022-10-26T03:50:48;16.58;;;3.65;;
46042;SDS011;32533;-33.854;18.542;2022-10-26T03:53:14;9.38;;;3.35;;
46042;SDS011;32533;-33.854;18.542;2022-10-26T03:55:43;20.27;;;8.02;;
46042;SDS011;32533;-33.854;18.542;2022-10-26T03:58:10;54.08;;;27.90;;
46042;SDS011;32533;-33.854;18.542;2022-10-26T04:00:37;80.57;;;42.38;;
46042;SDS011;32533;-33.854;18.542;2022-10-26T06:30:41;15.70;;;3.53;;
46042;SDS011;32533;-33.854;18.542;2022-10-26T06:33:11;16.10;;;4.93;;
46042;SDS011;32533;-33.854;18.542;2022-10-26T06:38:09;8.98;;;4.05;;
46042;SDS011;32533;-33.854;18.542;2022-10-26T06:40:42;9.73;;;4.15;;
46042;SDS011;32533;-33.854;18.542;2022-10-26T06:43:12;17.98;;;3.10;;
46042;SDS011;32533;-33.854;18.542;2022-10-26T06:46:01;14.45;;;4.22;;
46042;SDS011;32533;-33.854;18.542;2022-10-26T06:48:50;10.82;;;2.50;;
46042;SDS011;32533;-33.854;18.542;2022-10-26T06:51:40;10.95;;;3.15;;
46042;SDS011;32533;-33.854;18.542;2022-10-26T06:54:55;15.15;;;3.17;;
46042;SDS011;32533;-33.854;18.542;2022-10-26T06:57:14;8.23;;;2.45;;
46042;SDS011;32533;-33.854;18.542;2022-10-26T06:59:43;8.40;;;2.88;;
46042;SDS011;32533;-33.854;18.542;2022-10-26T07:02:18;22.40;;;5.22;;
46042;SDS011;32533;-33.854;18.542;2022-10-26T07:04:45;17.30;;;3.55;;
46042;SDS011;32533;-33.854;18.542;2022-10-26T07:07:14;23.05;;;5.50;;
46042;SDS011;32533;-33.854;18.542;2022-10-26T07:09:47;19.08;;;4.03;;
46042;SDS011;32533;-33.854;18.542;2022-10-26T07:12:14;35.22;;;4.15;;
46042;SDS011;32533;-33.854;18.542;2022-10-26T07:14:40;12.10;;;2.47;;
46042;SDS011;32533;-33.854;18.542;2022-10-26T07:17:07;21.48;;;4.30;;
46042;SDS011;32533;-33.854;18.542;2022-10-26T07:19:34;11.43;;;3.30;;
46042;SDS011;32533;-33.854;18.542;2022-10-26T07:22:04;14.93;;;3.63;;
46042;SDS011;32533;-33.854;18.542;2022-10-26T07:24:31;12.98;;;3.40;;
46042;SDS011;32533;-33.854;18.542;2022-10-26T07:26:57;12.88;;;4.10;;
46042;SDS011;32533;-33.854;18.542;2022-10-26T07:29:24;11.23;;;3.35;;
46042;SDS011;32533;-33.854;18.542;2022-10-26T07:31:51;13.13;;;4.53;;
46042;SDS011;32533;-33.854;18.542;2022-10-26T07:34:18;16.50;;;3.25;;
46042;SDS011;32533;-33.854;18.542;2022-10-26T07:36:45;9.63;;;3.03;;
46042;SDS011;32533;-33.854;18.542;2022-10-26T07:39:11;9.65;;;2.60;;
46042;SDS011;32533;-33.854;18.542;2022-10-26T07:41:38;9.80;;;2.63;;
46042;SDS011;32533;-33.854;18.542;2022-10-26T07:44:04;11.70;;;2.80;;
46042;SDS011;32533;-33.854;18.542;2022-10-26T07:46:30;14.80;;;3.05;;
46042;SDS011;32533;-33.854;18.542;2022-10-26T07:48:57;16.55;;;2.92;;
46042;SDS011;32533;-33.854;18.542;2022-10-26T07:51:23;10.65;;;3.45;;
46042;SDS011;32533;-33.854;18.542;2022-10-26T07:53:50;14.05;;;2.33;;
46042;SDS011;32533;-33.854;18.542;2022-10-26T07:56:17;18.45;;;3.40;;
46042;SDS011;32533;-33.854;18.542;2022-10-26T07:58:43;9.85;;;3.03;;
46042;SDS011;32533;-33.854;18.542;2022-10-26T08:01:13;27.13;;;4.80;;
46042;SDS011;32533;-33.854;18.542;2022-10-26T08:04:18;13.77;;;1.83;;
46042;SDS011;32533;-33.854;18.542;2022-10-26T08:07:25;9.30;;;2.22;;
46042;SDS011;32533;-33.854;18.542;2022-10-26T08:10:30;8.52;;;1.85;;
46042;SDS011;32533;-33.854;18.542;2022-10-26T08:13:36;9.35;;;2.50;;
46042;SDS011;32533;-33.854;18.542;2022-10-26T08:16:42;5.85;;;1.73;;
46042;SDS011;32533;-33.854;18.542;2022-10-26T08:19:48;13.05;;;3.28;;
46042;SDS011;32533;-33.854;18.542;2022-10-26T08:25:40;8.93;;;2.15;;
46042;SDS011;32533;-33.854;18.542;2022-10-26T08:28:47;6.57;;;1.73;;
46042;SDS011;32533;-33.854;18.542;2022-10-26T08:31:52;4.60;;;1.75;;
46042;SDS011;32533;-33.854;18.542;2022-10-26T08:34:59;11.05;;;2.47;;
46042;SDS011;32533;-33.854;18.542;2022-10-26T08:38:05;6.07;;;1.45;;
46042;SDS011;32533;-33.854;18.542;2022-10-26T08:41:11;4.63;;;1.85;;
46042;SDS011;32533;-33.854;18.542;2022-10-26T08:44:02;14.45;;;3.33;;
46042;SDS011;32533;-33.854;18.542;2022-10-26T08:46:48;7.65;;;2.17;;
46042;SDS011;32533;-33.854;18.542;2022-10-26T08:52:49;9.57;;;3.03;;
46042;SDS011;32533;-33.854;18.542;2022-10-26T08:55:58;7.25;;;1.90;;
46042;SDS011;32533;-33.854;18.542;2022-10-26T09:02:13;6.28;;;2.28;;
46042;SDS011;32533;-33.854;18.542;2022-10-26T09:23:12;6.13;;;2.15;;
46042;SDS011;32533;-33.854;18.542;2022-10-26T09:29:39;6.82;;;2.08;;
46042;SDS011;32533;-33.854;18.542;2022-10-26T09:35:41;7.03;;;2.35;;
46042;SDS011;32533;-33.854;18.542;2022-10-26T09:43:54;5.75;;;2.08;;
46042;SDS011;32533;-33.854;18.542;2022-10-26T09:47:04;5.10;;;2.10;;
46042;SDS011;32533;-33.854;18.542;2022-10-26T09:50:25;6.32;;;1.83;;
46042;SDS011;32533;-33.854;18.542;2022-10-26T09:53:29;5.05;;;1.17;;
46042;SDS011;32533;-33.854;18.542;2022-10-26T09:56:05;7.07;;;2.03;;
46042;SDS011;32533;-33.854;18.542;2022-10-26T09:58:39;5.88;;;2.00;;
46042;SDS011;32533;-33.854;18.542;2022-10-26T10:01:33;6.55;;;1.83;;
46042;SDS011;32533;-33.854;18.542;2022-10-26T10:06:41;4.35;;;1.77;;
46042;SDS011;32533;-33.854;18.542;2022-10-26T10:09:11;6.63;;;2.00;;
46042;SDS011;32533;-33.854;18.542;2022-10-26T10:14:16;5.40;;;1.80;;
46042;SDS011;32533;-33.854;18.542;2022-10-26T10:19:29;5.90;;;1.35;;
46042;SDS011;32533;-33.854;18.542;2022-10-26T10:22:23;5.10;;;2.28;;
46042;SDS011;32533;-33.854;18.542;2022-10-26T10:27:19;6.40;;;2.30;;
46042;SDS011;32533;-33.854;18.542;2022-10-26T10:29:46;8.23;;;2.22;;
46042;SDS011;32533;-33.854;18.542;2022-10-26T10:32:27;5.22;;;1.30;;
46042;SDS011;32533;-33.854;18.542;2022-10-26T10:34:56;7.45;;;1.50;;
46042;SDS011;32533;-33.854;18.542;2022-10-26T10:37:35;5.22;;;2.10;;
46042;SDS011;32533;-33.854;18.542;2022-10-26T10:42:45;7.32;;;2.00;;
46042;SDS011;32533;-33.854;18.542;2022-10-26T10:46:15;5.18;;;1.58;;
46042;SDS011;32533;-33.854;18.542;2022-10-26T10:50:51;10.63;;;1.88;;
46042;SDS011;32533;-33.854;18.542;2022-10-26T11:01:26;6.68;;;2.05;;
46042;SDS011;32533;-33.854;18.542;2022-10-26T11:04:07;6.43;;;2.03;;
46042;SDS011;32533;-33.854;18.542;2022-10-26T11:07:03;10.70;;;3.15;;
46042;SDS011;32533;-33.854;18.542;2022-10-26T11:09:32;7.13;;;3.70;;
46042;SDS011;32533;-33.854;18.542;2022-10-26T11:12:12;11.27;;;5.95;;
46042;SDS011;32533;-33.854;18.542;2022-10-26T11:14:53;13.65;;;6.72;;
46042;SDS011;32533;-33.854;18.542;2022-10-26T11:17:31;12.52;;;6.30;;
46042;SDS011;32533;-33.854;18.542;2022-10-26T11:20:16;16.90;;;5.55;;
46042;SDS011;32533;-33.854;18.542;2022-10-26T11:25:36;8.18;;;4.15;;
46042;SDS011;32533;-33.854;18.542;2022-10-26T11:30:36;9.98;;;3.70;;
46042;SDS011;32533;-33.854;18.542;2022-10-26T11:35:59;12.40;;;4.25;;
46042;SDS011;32533;-33.854;18.542;2022-10-26T11:38:41;7.10;;;3.17;;
46042;SDS011;32533;-33.854;18.542;2022-10-26T11:43:55;10.45;;;4.65;;
46042;SDS011;32533;-33.854;18.542;2022-10-26T11:46:48;12.15;;;3.60;;
46042;SDS011;32533;-33.854;18.542;2022-10-26T11:52:15;6.13;;;2.78;;
46042;SDS011;32533;-33.854;18.542;2022-10-26T11:54:49;5.70;;;3.10;;
46042;SDS011;32533;-33.854;18.542;2022-10-26T11:57:21;6.18;;;3.35;;
46042;SDS011;32533;-33.854;18.542;2022-10-26T11:59:50;6.22;;;3.00;;
46042;SDS011;32533;-33.854;18.542;2022-10-26T12:02:26;6.50;;;2.33;;
46042;SDS011;32533;-33.854;18.542;2022-10-26T14:22:06;17.42;;;5.50;;
46042;SDS011;32533;-33.854;18.542;2022-10-26T14:24:34;20.67;;;6.30;;
46042;SDS011;32533;-33.854;18.542;2022-10-26T14:27:18;13.95;;;4.38;;
46042;SDS011;32533;-33.854;18.542;2022-10-26T14:29:50;23.40;;;6.78;;
46042;SDS011;32533;-33.854;18.542;2022-10-26T14:32:27;18.40;;;6.03;;
46042;SDS011;32533;-33.854;18.542;2022-10-26T14:34:58;27.08;;;16.13;;
46042;SDS011;32533;-33.854;18.542;2022-10-26T14:39:59;40.25;;;35.35;;
46042;SDS011;32533;-33.854;18.542;2022-10-26T14:42:46;45.80;;;35.97;;
46042;SDS011;32533;-33.854;18.542;2022-10-26T14:45:22;102.50;;;90.15;;
46042;SDS011;32533;-33.854;18.542;2022-10-26T14:47:54;75.85;;;63.38;;
46042;SDS011;32533;-33.854;18.542;2022-10-26T14:50:22;83.40;;;69.95;;
46042;SDS011;32533;-33.854;18.542;2022-10-26T14:52:52;170.07;;;150.32;;
46042;SDS011;32533;-33.854;18.542;2022-10-26T14:55:21;132.50;;;105.05;;
46042;SDS011;32533;-33.854;18.542;2022-10-26T14:57:50;69.13;;;49.85;;
46042;SDS011;32533;-33.854;18.542;2022-10-26T15:00:20;46.75;;;21.88;;
46042;SDS011;32533;-33.854;18.542;2022-10-26T15:02:49;26.33;;;12.95;;
46042;SDS011;32533;-33.854;18.542;2022-10-26T15:05:24;27.33;;;9.25;;
46042;SDS011;32533;-33.854;18.542;2022-10-26T15:07:54;20.75;;;7.85;;
46042;SDS011;32533;-33.854;18.542;2022-10-26T15:13:09;21.38;;;6.72;;
46042;SDS011;32533;-33.854;18.542;2022-10-26T15:15:49;15.98;;;6.00;;
46042;SDS011;32533;-33.854;18.542;2022-10-26T15:18:36;29.02;;;10.68;;
46042;SDS011;32533;-33.854;18.542;2022-10-26T15:21:06;27.05;;;11.15;;
46042;SDS011;32533;-33.854;18.542;2022-10-26T15:23:52;17.25;;;8.38;;
46042;SDS011;32533;-33.854;18.542;2022-10-26T15:26:20;14.68;;;5.80;;
46042;SDS011;32533;-33.854;18.542;2022-10-26T15:28:47;17.95;;;6.28;;
46042;SDS011;32533;-33.854;18.542;2022-10-26T15:31:28;16.95;;;6.05;;
46042;SDS011;32533;-33.854;18.542;2022-10-26T15:36:26;16.60;;;5.88;;
46042;SDS011;32533;-33.854;18.542;2022-10-26T15:38:53;20.38;;;6.47;;
46042;SDS011;32533;-33.854;18.542;2022-10-26T15:43:58;16.13;;;5.68;;
46042;SDS011;32533;-33.854;18.542;2022-10-26T15:46:33;21.02;;;5.68;;
46042;SDS011;32533;-33.854;18.542;2022-10-26T15:49:03;18.88;;;5.30;;
46042;SDS011;32533;-33.854;18.542;2022-10-26T15:51:50;19.23;;;6.45;;
46042;SDS011;32533;-33.854;18.542;2022-10-26T15:54:16;21.05;;;8.57;;
46042;SDS011;32533;-33.854;18.542;2022-10-26T15:56:43;21.13;;;6.32;;
46042;SDS011;32533;-33.854;18.542;2022-10-26T15:59:13;13.57;;;5.38;;
46042;SDS011;32533;-33.854;18.542;2022-10-26T16:01:44;26.88;;;8.85;;
46042;SDS011;32533;-33.854;18.542;2022-10-26T16:04:12;22.08;;;8.52;;
46042;SDS011;32533;-33.854;18.542;2022-10-26T16:06:39;23.73;;;8.07;;
46042;SDS011;32533;-33.854;18.542;2022-10-26T16:09:09;27.40;;;7.75;;
46042;SDS011;32533;-33.854;18.542;2022-10-26T16:11:43;17.48;;;6.53;;
46042;SDS011;32533;-33.854;18.542;2022-10-26T16:14:10;16.00;;;6.38;;
46042;SDS011;32533;-33.854;18.542;2022-10-26T16:17:16;18.98;;;6.15;;
46042;SDS011;32533;-33.854;18.542;2022-10-26T16:20:28;18.52;;;5.60;;
46042;SDS011;32533;-33.854;18.542;2022-10-26T16:23:00;18.63;;;6.45;;
46042;SDS011;32533;-33.854;18.542;2022-10-26T16:25:32;20.15;;;8.18;;
46042;SDS011;32533;-33.854;18.542;2022-10-26T16:28:00;22.38;;;9.95;;
46042;SDS011;32533;-33.854;18.542;2022-10-26T16:30:27;23.17;;;7.78;;
46042;SDS011;32533;-33.854;18.542;2022-10-26T16:33:33;21.13;;;5.93;;
46042;SDS011;32533;-33.854;18.542;2022-10-26T16:39:54;31.58;;;7.75;;
46042;SDS011;32533;-33.854;18.542;2022-10-26T16:42:57;29.65;;;7.03;;
46042;SDS011;32533;-33.854;18.542;2022-10-26T16:46:04;22.50;;;5.90;;
46042;SDS011;32533;-33.854;18.542;2022-10-26T16:48:33;25.25;;;5.97;;
46042;SDS011;32533;-33.854;18.542;2022-10-26T16:51:05;21.35;;;6.50;;
46042;SDS011;32533;-33.854;18.542;2022-10-26T16:54:10;17.10;;;6.10;;
46042;SDS011;32533;-33.854;18.542;2022-10-26T16:57:16;15.95;;;4.72;;
46042;SDS011;32533;-33.854;18.542;2022-10-26T17:02:48;18.02;;;5.53;;
46042;SDS011;32533;-33.854;18.542;2022-10-26T17:05:14;23.60;;;6.78;;
46042;SDS011;32533;-33.854;18.542;2022-10-26T17:07:41;33.83;;;8.68;;
46042;SDS011;32533;-33.854;18.542;2022-10-26T17:10:08;24.50;;;11.32;;
46042;SDS011;32533;-33.854;18.542;2022-10-26T17:12:34;15.15;;;8.35;;
46042;SDS011;32533;-33.854;18.542;2022-10-26T17:15:01;19.65;;;8.45;;
46042;SDS011;32533;-33.854;18.542;2022-10-26T17:17:27;22.42;;;6.88;;
46042;SDS011;32533;-33.854;18.542;2022-10-26T17:19:54;18.10;;;6.43;;
46042;SDS011;32533;-33.854;18.542;2022-10-26T17:22:20;11.30;;;5.45;;
46042;SDS011;32533;-33.854;18.542;2022-10-26T17:24:47;15.38;;;6.57;;
46042;SDS011;32533;-33.854;18.542;2022-10-26T17:27:13;28.60;;;13.80;;
46042;SDS011;32533;-33.854;18.542;2022-10-26T17:29:41;27.13;;;13.00;;
46042;SDS011;32533;-33.854;18.542;2022-10-26T17:32:12;18.15;;;7.70;;
46042;SDS011;32533;-33.854;18.542;2022-10-26T17:34:39;16.42;;;5.75;;
46042;SDS011;32533;-33.854;18.542;2022-10-26T17:37:05;14.73;;;4.70;;
46042;SDS011;32533;-33.854;18.542;2022-10-26T17:39:32;17.17;;;4.55;;
46042;SDS011;32533;-33.854;18.542;2022-10-26T17:42:18;19.35;;;5.18;;
46042;SDS011;32533;-33.854;18.542;2022-10-26T17:44:48;14.20;;;5.15;;
46042;SDS011;32533;-33.854;18.542;2022-10-26T17:47:17;22.33;;;5.22;;
46042;SDS011;32533;-33.854;18.542;2022-10-26T17:49:44;15.45;;;5.30;;
46042;SDS011;32533;-33.854;18.542;2022-10-26T17:52:10;16.65;;;5.65;;
46042;SDS011;32533;-33.854;18.542;2022-10-26T17:54:37;13.70;;;5.93;;
46042;SDS011;32533;-33.854;18.542;2022-10-26T17:57:05;16.23;;;5.05;;
46042;SDS011;32533;-33.854;18.542;2022-10-26T17:59:35;16.48;;;6.43;;
46042;SDS011;32533;-33.854;18.542;2022-10-26T18:02:01;14.35;;;5.43;;
46042;SDS011;32533;-33.854;18.542;2022-10-26T18:04:28;18.58;;;6.47;;
46042;SDS011;32533;-33.854;18.542;2022-10-26T18:06:54;24.45;;;12.32;;
46042;SDS011;32533;-33.854;18.542;2022-10-26T18:09:20;25.42;;;11.85;;
46042;SDS011;32533;-33.854;18.542;2022-10-26T18:11:47;16.52;;;7.38;;
46042;SDS011;32533;-33.854;18.542;2022-10-26T18:14:13;23.25;;;8.45;;
46042;SDS011;32533;-33.854;18.542;2022-10-26T18:16:40;18.25;;;6.22;;
46042;SDS011;32533;-33.854;18.542;2022-10-26T18:19:06;16.80;;;6.50;;
46042;SDS011;32533;-33.854;18.542;2022-10-26T18:21:34;15.18;;;5.53;;
46042;SDS011;32533;-33.854;18.542;2022-10-26T18:24:04;19.23;;;5.82;;
46042;SDS011;32533;-33.854;18.542;2022-10-26T18:26:32;14.68;;;5.40;;
46042;SDS011;32533;-33.854;18.542;2022-10-26T18:29:00;16.95;;;6.22;;
46042;SDS011;32533;-33.854;18.542;2022-10-26T18:31:27;28.67;;;7.05;;
46042;SDS011;32533;-33.854;18.542;2022-10-26T18:33:55;19.10;;;5.80;;
46042;SDS011;32533;-33.854;18.542;2022-10-26T18:36:24;18.02;;;4.82;;
46042;SDS011;32533;-33.854;18.542;2022-10-26T18:38:51;15.93;;;5.43;;
46042;SDS011;32533;-33.854;18.542;2022-10-26T18:41:18;17.67;;;5.57;;
46042;SDS011;32533;-33.854;18.542;2022-10-26T18:43:46;15.07;;;5.38;;
46042;SDS011;32533;-33.854;18.542;2022-10-26T18:46:18;21.05;;;6.03;;
46042;SDS011;32533;-33.854;18.542;2022-10-26T18:48:51;16.20;;;4.85;;
46042;SDS011;32533;-33.854;18.542;2022-10-26T18:51:23;16.02;;;5.40;;
46042;SDS011;32533;-33.854;18.542;2022-10-26T18:53:52;22.27;;;6.22;;
46042;SDS011;32533;-33.854;18.542;2022-10-26T18:56:20;28.17;;;7.70;;
46042;SDS011;32533;-33.854;18.542;2022-10-26T18:58:48;18.80;;;6.28;;
46042;SDS011;32533;-33.854;18.542;2022-10-26T19:01:29;23.73;;;6.18;;
46042;SDS011;32533;-33.854;18.542;2022-10-26T19:04:01;18.33;;;5.18;;
46042;SDS011;32533;-33.854;18.542;2022-10-26T19:06:31;20.58;;;5.95;;
46042;SDS011;32533;-33.854;18.542;2022-10-26T19:08:58;20.45;;;7.38;;
46042;SDS011;32533;-33.854;18.542;2022-10-26T19:11:26;15.40;;;6.93;;
46042;SDS011;32533;-33.854;18.542;2022-10-26T19:13:54;17.02;;;6.55;;
46042;SDS011;32533;-33.854;18.542;2022-10-26T19:16:22;14.85;;;6.13;;
46042;SDS011;32533;-33.854;18.542;2022-10-26T19:18:50;21.83;;;6.50;;
46042;SDS011;32533;-33.854;18.542;2022-10-26T19:21:18;25.25;;;7.47;;
46042;SDS011;32533;-33.854;18.542;2022-10-26T19:23:54;16.70;;;6.30;;
46042;SDS011;32533;-33.854;18.542;2022-10-26T19:26:24;16.30;;;5.90;;
46042;SDS011;32533;-33.854;18.542;2022-10-26T19:28:55;16.02;;;6.78;;
46042;SDS011;32533;-33.854;18.542;2022-10-26T19:31:23;18.35;;;6.35;;
46042;SDS011;32533;-33.854;18.542;2022-10-26T19:33:51;20.05;;;7.47;;
46042;SDS011;32533;-33.854;18.542;2022-10-26T19:36:20;11.15;;;4.70;;
46042;SDS011;32533;-33.854;18.542;2022-10-26T19:38:47;17.27;;;7.05;;
46042;SDS011;32533;-33.854;18.542;2022-10-26T19:41:13;17.33;;;6.68;;
46042;SDS011;32533;-33.854;18.542;2022-10-26T19:43:40;18.67;;;6.78;;
46042;SDS011;32533;-33.854;18.542;2022-10-26T19:46:09;20.50;;;5.50;;
46042;SDS011;32533;-33.854;18.542;2022-10-26T19:48:37;19.63;;;6.88;;
46042;SDS011;32533;-33.854;18.542;2022-10-26T19:51:04;17.75;;;5.57;;
46042;SDS011;32533;-33.854;18.542;2022-10-26T19:53:31;13.52;;;5.05;;
46042;SDS011;32533;-33.854;18.542;2022-10-26T19:55:58;22.83;;;5.70;;
46042;SDS011;32533;-33.854;18.542;2022-10-26T19:58:26;25.52;;;7.20;;
46042;SDS011;32533;-33.854;18.542;2022-10-26T20:00:58;20.65;;;6.00;;
46042;SDS011;32533;-33.854;18.542;2022-10-26T22:21:53;16.95;;;5.65;;
46042;SDS011;32533;-33.854;18.542;2022-10-26T22:24:20;16.45;;;6.10;;
46042;SDS011;32533;-33.854;18.542;2022-10-26T22:26:46;19.02;;;4.90;;
46042;SDS011;32533;-33.854;18.542;2022-10-26T22:29:13;20.45;;;5.50;;
46042;SDS011;32533;-33.854;18.542;2022-10-26T22:31:39;24.77;;;6.68;;
46042;SDS011;32533;-33.854;18.542;2022-10-26T22:34:07;15.55;;;5.13;;
46042;SDS011;32533;-33.854;18.542;2022-10-26T22:36:39;17.40;;;5.47;;
46042;SDS011;32533;-33.854;18.542;2022-10-26T22:39:05;16.77;;;5.22;;
46042;SDS011;32533;-33.854;18.542;2022-10-26T22:41:32;14.13;;;6.13;;
46042;SDS011;32533;-33.854;18.542;2022-10-26T22:43:58;8.30;;;4.35;;
46042;SDS011;32533;-33.854;18.542;2022-10-26T22:46:25;17.17;;;6.30;;
46042;SDS011;32533;-33.854;18.542;2022-10-26T22:48:56;14.60;;;5.50;;
46042;SDS011;32533;-33.854;18.542;2022-10-26T22:51:25;18.25;;;7.43;;
46042;SDS011;32533;-33.854;18.542;2022-10-26T22:53:57;15.02;;;5.22;;
46042;SDS011;32533;-33.854;18.542;2022-10-26T22:56:26;11.45;;;4.43;;
46042;SDS011;32533;-33.854;18.542;2022-10-26T22:58:53;20.00;;;5.80;;
46042;SDS011;32533;-33.854;18.542;2022-10-26T23:01:21;14.82;;;5.05;;
46042;SDS011;32533;-33.854;18.542;2022-10-26T23:03:50;12.77;;;4.60;;
46042;SDS011;32533;-33.854;18.542;2022-10-26T23:06:23;18.77;;;6.03;;
46042;SDS011;32533;-33.854;18.542;2022-10-26T23:08:51;20.30;;;5.53;;
46042;SDS011;32533;-33.854;18.542;2022-10-26T23:11:18;14.93;;;5.18;;
46042;SDS011;32533;-33.854;18.542;2022-10-26T23:13:46;13.10;;;5.95;;
46042;SDS011;32533;-33.854;18.542;2022-10-26T23:16:13;21.30;;;7.05;;
46042;SDS011;32533;-33.854;18.542;2022-10-26T23:18:42;17.13;;;5.57;;
46042;SDS011;32533;-33.854;18.542;2022-10-26T23:21:09;28.67;;;8.27;;
46042;SDS011;32533;-33.854;18.542;2022-10-26T23:23:36;21.80;;;6.88;;
46042;SDS011;32533;-33.854;18.542;2022-10-26T23:26:04;23.98;;;6.32;;
46042;SDS011;32533;-33.854;18.542;2022-10-26T23:28:32;20.17;;;8.02;;
46042;SDS011;32533;-33.854;18.542;2022-10-26T23:30:59;31.77;;;6.90;;
46042;SDS011;32533;-33.854;18.542;2022-10-26T23:33:27;28.17;;;7.38;;
46042;SDS011;32533;-33.854;18.542;2022-10-26T23:35:54;23.05;;;5.97;;
46042;SDS011;32533;-33.854;18.542;2022-10-26T23:38:21;19.40;;;5.57;;
46042;SDS011;32533;-33.854;18.542;2022-10-26T23:40:51;21.27;;;6.32;;
46042;SDS011;32533;-33.854;18.542;2022-10-26T23:43:22;19.02;;;5.05;;
46042;SDS011;32533;-33.854;18.542;2022-10-26T23:45:49;18.27;;;5.63;;
46042;SDS011;32533;-33.854;18.542;2022-10-26T23:48:16;17.48;;;5.70;;
46042;SDS011;32533;-33.854;18.542;2022-10-26T23:50:44;19.23;;;6.82;;
46042;SDS011;32533;-33.854;18.542;2022-10-26T23:53:12;16.67;;;4.78;;
46042;SDS011;32533;-33.854;18.542;2022-10-26T23:55:41;33.95;;;6.93;;